Time;durP1;ratioP1;P1;durP2;ratioP2;P2;SDS_P1;SDS_P2;PMS_P1;PMS_P2;Temp;Humidity;BMP_temperature;BMP_pressure;BME280_temperature;BME280_humidity;BME280_pressure;Samples;Min_cycle;Max_cycle;Signal;HPM_P1;HPM_P2
2022/01/12 00:01:01;;;;;;;45.60;20.77;;;-0.50;99.90;;;;;;5071767;28;20207;-74
2022/01/12 00:03:26;;;;;;;43.50;20.47;;;-0.40;99.90;;;;;;5072140;28;20662;-75
2022/01/12 00:05:52;;;;;;;41.33;20.17;;;-0.40;99.90;;;;;;5073262;28;20207;-74
2022/01/12 00:08:17;;;;;;;43.97;20.40;;;-0.40;99.90;;;;;;5072355;28;20219;-75
2022/01/12 00:10:44;;;;;;;41.67;20.53;;;-0.40;99.90;;;;;;5071444;28;20294;-74
2022/01/12 00:13:09;;;;;;;43.27;20.27;;;-0.40;99.90;;;;;;5073276;28;20296;-73
2022/01/12 00:15:35;;;;;;;47.20;21.60;;;-0.40;99.90;;;;;;5072747;28;20635;-74
2022/01/12 00:18:00;;;;;;;45.17;21.47;;;-0.40;99.90;;;;;;5070815;28;20656;-74
2022/01/12 00:20:26;;;;;;;48.07;20.60;;;-0.30;99.90;;;;;;5071411;28;20214;-74
2022/01/12 00:22:52;;;;;;;45.60;20.50;;;-0.20;99.90;;;;;;5071548;28;20246;-74
2022/01/12 00:33:14;;;;;;;42.00;19.27;;;-0.20;99.90;;;;;;5073645;28;20198;-74
2022/01/12 00:35:44;;;;;;;43.70;20.13;;;-0.10;99.90;;;;;;5072340;28;20282;-74
2022/01/12 00:38:11;;;;;;;44.90;20.13;;;-0.20;99.90;;;;;;5072577;28;20211;-75
2022/01/12 00:40:42;;;;;;;44.30;19.17;;;-0.20;99.90;;;;;;5072280;28;20218;-74
2022/01/12 00:43:08;;;;;;;46.60;19.73;;;-0.20;99.90;;;;;;5073505;28;20226;-74
2022/01/12 00:45:34;;;;;;;49.70;21.50;;;-0.20;99.90;;;;;;5072914;28;20682;-75
2022/01/12 00:48:00;;;;;;;50.33;21.17;;;-0.20;99.90;;;;;;5073455;28;20169;-74
2022/01/12 00:50:25;;;;;;;41.70;18.63;;;-0.20;99.90;;;;;;5073178;28;20210;-75
2022/01/12 00:52:53;;;;;;;42.77;19.87;;;-0.10;99.90;;;;;;5072827;28;20210;-75
2022/01/12 00:55:18;;;;;;;41.17;19.30;;;-0.20;99.90;;;;;;5072734;28;20760;-74
2022/01/12 00:57:44;;;;;;;42.13;19.37;;;-0.20;99.90;;;;;;5072752;28;20291;-75
2022/01/12 01:00:10;;;;;;;45.27;20.50;;;-0.10;99.90;;;;;;5073587;28;20261;-75
2022/01/12 01:02:35;;;;;;;38.80;17.57;;;-0.10;99.90;;;;;;5071755;28;20681;-75
2022/01/12 01:05:02;;;;;;;41.57;18.70;;;-0.10;99.90;;;;;;5071379;28;20211;-75
2022/01/12 01:07:28;;;;;;;39.37;18.70;;;-0.10;99.90;;;;;;5072025;28;20221;-75
2022/01/12 01:10:03;;;;;;;38.50;17.50;;;-0.10;99.90;;;;;;5071689;28;20291;-73
2022/01/12 01:12:28;;;;;;;38.03;19.10;;;-0.10;99.90;;;;;;5071034;28;20185;-75
2022/01/12 01:25:48;;;;;;;41.10;18.20;;;-0.10;99.90;;;;;;5071405;28;20311;-72
2022/01/12 01:28:16;;;;;;;37.73;18.07;;;-0.30;99.90;;;;;;5071485;28;20642;-74
2022/01/12 01:30:44;;;;;;;39.17;17.93;;;-0.40;99.90;;;;;;5071480;28;20221;-73
2022/01/12 01:33:11;;;;;;;37.60;17.63;;;-0.40;99.90;;;;;;5072109;28;20183;-74
2022/01/12 01:35:40;;;;;;;38.70;18.03;;;-0.40;99.90;;;;;;5071830;28;20228;-73
2022/01/12 01:38:06;;;;;;;41.30;18.03;;;-0.50;99.90;;;;;;5071327;28;20256;-73
2022/01/12 01:40:35;;;;;;;41.50;18.17;;;-0.50;99.90;;;;;;5070116;28;20227;-73
2022/01/12 01:53:49;;;;;;;37.23;16.37;;;-0.40;99.90;;;;;;5071481;28;20206;-74
2022/01/12 01:56:14;;;;;;;40.67;16.93;;;-0.30;99.90;;;;;;5070808;28;20220;-74
2022/01/12 01:58:40;;;;;;;43.20;18.77;;;-0.30;99.90;;;;;;5070889;28;20215;-73
2022/01/12 02:01:06;;;;;;;41.03;18.40;;;-0.20;99.90;;;;;;5071027;28;20222;-74
2022/01/12 02:03:32;;;;;;;44.67;19.43;;;-0.40;99.90;;;;;;5069827;28;20566;-75
2022/01/12 02:06:04;;;;;;;47.37;18.97;;;-0.30;99.90;;;;;;5069743;28;20296;-75
2022/01/12 02:08:30;;;;;;;44.70;19.93;;;-0.30;99.90;;;;;;5070778;28;20856;-73
2022/01/12 02:10:57;;;;;;;44.40;18.00;;;-0.30;99.90;;;;;;5070765;28;20233;-72
2022/01/12 02:13:23;;;;;;;46.03;18.77;;;-0.20;99.90;;;;;;5070803;28;20215;-73
2022/01/12 02:15:50;;;;;;;47.90;18.90;;;-0.10;99.90;;;;;;5070931;28;20215;-74
2022/01/12 02:18:32;;;;;;;46.13;18.10;;;-0.10;99.90;;;;;;5071221;28;20178;-74
2022/01/12 02:35:16;;;;;;;43.93;17.87;;;-0.10;99.90;;;;;;5071463;28;20216;-74
2022/01/12 02:40:35;;;;;;;40.50;16.20;;;-0.10;99.90;;;;;;5071939;28;20339;-73
2022/01/12 02:43:15;;;;;;;38.07;15.93;;;-0.10;99.90;;;;;;5075033;28;20214;-74
2022/01/12 02:53:51;;;;;;;38.20;17.57;;;-0.10;99.90;;;;;;5074975;28;20227;-73
2022/01/12 02:56:23;;;;;;;42.50;18.23;;;-0.20;99.90;;;;;;5074528;28;20689;-74
2022/01/12 02:58:50;;;;;;;43.40;16.00;;;-0.20;99.90;;;;;;5074517;28;20213;-75
2022/01/12 03:01:47;;;;;;;36.50;15.90;;;-0.10;99.90;;;;;;5074358;28;20710;-73
2022/01/12 03:04:11;;;;;;;39.63;15.80;;;-0.10;99.90;;;;;;5074661;28;20225;-72
2022/01/12 03:06:39;;;;;;;40.27;18.03;;;0.00;99.90;;;;;;5074096;28;20666;-75
2022/01/12 03:09:08;;;;;;;41.80;18.47;;;0.00;99.90;;;;;;5074741;28;20175;-74
2022/01/12 03:11:35;;;;;;;39.93;17.00;;;0.00;99.90;;;;;;5072831;28;20208;-74
2022/01/12 03:14:01;;;;;;;41.63;17.37;;;0.00;99.90;;;;;;5074079;28;20209;-75
2022/01/12 03:16:28;;;;;;;37.20;16.80;;;0.00;99.90;;;;;;5073796;28;20572;-76
2022/01/12 03:18:56;;;;;;;39.57;17.37;;;0.10;99.90;;;;;;5074050;28;20209;-74
2022/01/12 03:21:26;;;;;;;46.07;18.03;;;0.00;99.90;;;;;;5073653;28;20186;-73
2022/01/12 03:23:52;;;;;;;42.63;16.83;;;0.00;99.90;;;;;;5074365;28;20180;-73
2022/01/12 03:26:19;;;;;;;48.73;18.30;;;0.00;99.90;;;;;;5073511;28;20229;-74
2022/01/12 03:28:52;;;;;;;43.27;19.13;;;-0.20;99.90;;;;;;5073831;28;20222;-74
2022/01/12 03:31:21;;;;;;;46.07;20.73;;;-0.20;99.90;;;;;;5063099;28;20314;-74
2022/01/12 03:38:51;;;;;;;40.53;18.53;;;-0.10;99.90;;;;;;5065878;28;20213;-73
2022/01/12 03:41:17;;;;;;;41.43;17.73;;;-0.10;99.90;;;;;;5073440;28;20227;-73
2022/01/12 03:43:43;;;;;;;45.00;18.27;;;-0.20;99.90;;;;;;5073629;28;20213;-73
2022/01/12 03:46:09;;;;;;;48.60;18.40;;;-0.10;99.90;;;;;;5072301;28;20237;-73
2022/01/12 03:48:34;;;;;;;48.30;19.33;;;-0.10;99.90;;;;;;5072033;28;20180;-74
2022/01/12 03:51:00;;;;;;;50.03;19.23;;;-0.10;99.90;;;;;;5078051;28;20184;-74
2022/01/12 03:53:25;;;;;;;45.17;18.17;;;-0.10;99.90;;;;;;5072164;28;20603;-73
2022/01/12 03:55:51;;;;;;;54.00;20.53;;;0.00;99.90;;;;;;5073676;28;20217;-74
2022/01/12 03:58:17;;;;;;;44.70;19.03;;;0.00;99.90;;;;;;5073480;28;20217;-73
2022/01/12 04:00:43;;;;;;;45.57;19.40;;;0.00;99.90;;;;;;5073461;28;20637;-74
2022/01/12 04:03:09;;;;;;;53.63;20.10;;;0.00;99.90;;;;;;5072938;28;20178;-74
2022/01/12 04:08:20;;;;;;;46.90;18.63;;;0.00;99.90;;;;;;5073276;28;20223;-73
2022/01/12 04:10:51;;;;;;;49.03;18.13;;;0.10;99.90;;;;;;5065326;28;20212;-73
2022/01/12 04:13:17;;;;;;;49.57;20.47;;;0.10;99.90;;;;;;5072108;28;20216;-73
2022/01/12 04:15:45;;;;;;;47.23;20.30;;;0.10;99.90;;;;;;5071881;28;20217;-73
2022/01/12 04:18:11;;;;;;;46.80;18.77;;;0.10;99.90;;;;;;5073621;28;20187;-73
2022/01/12 04:20:44;;;;;;;54.30;20.13;;;0.10;99.90;;;;;;5071690;28;20602;-74
2022/01/12 04:23:18;;;;;;;51.57;19.60;;;0.10;99.90;;;;;;5072134;28;20197;-73
2022/01/12 04:25:50;;;;;;;56.00;20.57;;;0.20;99.90;;;;;;5071163;28;20318;-73
2022/01/12 04:28:17;;;;;;;50.47;20.97;;;0.20;99.90;;;;;;5072955;28;20570;-74
2022/01/12 04:30:44;;;;;;;49.07;19.67;;;0.20;99.90;;;;;;5072583;28;20224;-75
2022/01/12 04:33:10;;;;;;;48.50;20.27;;;0.20;99.90;;;;;;5071854;28;20182;-73
2022/01/12 04:35:40;;;;;;;53.30;20.77;;;0.20;99.90;;;;;;5071341;28;20234;-73
2022/01/12 04:38:05;;;;;;;49.17;21.17;;;0.20;99.90;;;;;;5072653;28;20221;-74
2022/01/12 04:40:32;;;;;;;49.70;19.63;;;0.20;99.90;;;;;;5073129;28;20225;-73
2022/01/12 04:42:58;;;;;;;51.80;20.77;;;0.20;99.90;;;;;;5072603;28;20728;-75
2022/01/12 04:50:19;;;;;;;50.23;20.37;;;0.10;99.90;;;;;;5072212;28;20225;-74
2022/01/12 04:52:44;;;;;;;49.53;20.43;;;0.10;99.90;;;;;;5072140;28;20678;-75
2022/01/12 04:55:10;;;;;;;56.67;22.17;;;0.00;99.90;;;;;;5087727;28;20214;-74
2022/01/12 04:57:35;;;;;;;49.83;20.40;;;0.00;99.90;;;;;;5071905;28;20259;-73
2022/01/12 05:00:09;;;;;;;48.57;20.57;;;0.00;99.90;;;;;;5072294;28;20177;-75
2022/01/12 05:08:19;;;;;;;47.33;18.70;;;0.00;99.90;;;;;;5065799;28;20211;-72
2022/01/12 05:13:31;;;;;;;45.63;19.13;;;0.10;99.90;;;;;;5071711;28;20212;-75
2022/01/12 05:15:58;;;;;;;46.43;19.00;;;0.10;99.90;;;;;;5070239;28;20214;-74
2022/01/12 05:18:24;;;;;;;49.60;19.03;;;0.10;99.90;;;;;;5069933;28;20174;-74
2022/01/12 05:20:50;;;;;;;46.83;17.87;;;0.10;99.90;;;;;;5070823;28;20191;-73
2022/01/12 05:23:15;;;;;;;44.67;19.00;;;0.20;99.90;;;;;;5070217;28;20234;-74
2022/01/12 05:25:46;;;;;;;51.73;20.27;;;0.10;99.90;;;;;;5065194;23;20709;-72
2022/01/12 05:28:12;;;;;;;51.33;20.37;;;0.10;99.90;;;;;;5018001;28;20215;-72
2022/01/12 05:30:37;;;;;;;47.70;18.43;;;0.10;99.90;;;;;;5031181;28;20181;-72
2022/01/12 05:33:03;;;;;;;45.33;19.00;;;0.10;99.90;;;;;;5023971;28;20637;-71
2022/01/12 05:35:32;;;;;;;48.43;20.20;;;0.10;99.90;;;;;;4994749;28;20221;-71
2022/01/12 05:37:58;;;;;;;46.47;19.43;;;0.10;99.90;;;;;;5022970;28;20295;-71
2022/01/12 05:40:24;;;;;;;45.87;18.87;;;0.10;99.90;;;;;;5022523;28;20221;-71
2022/01/12 05:42:51;;;;;;;47.47;18.43;;;0.20;99.90;;;;;;5019709;28;20221;-73
2022/01/12 05:45:18;;;;;;;42.97;18.73;;;0.20;99.90;;;;;;5020025;28;20207;-72
2022/01/12 05:50:11;;;;;;;47.20;19.17;;;0.20;99.90;;;;;;5011509;28;20206;-71
2022/01/12 05:52:37;;;;;;;45.97;20.67;;;0.10;99.90;;;;;;5011356;28;20223;-73
2022/01/12 05:55:04;;;;;;;49.83;19.77;;;0.10;99.90;;;;;;5011613;28;20626;-71
2022/01/12 05:57:31;;;;;;;44.03;19.40;;;0.10;99.90;;;;;;5011171;28;20215;-72
2022/01/12 05:59:57;;;;;;;46.73;20.37;;;0.10;99.90;;;;;;4994223;28;20173;-71
2022/01/12 06:02:23;;;;;;;44.70;18.37;;;0.10;99.90;;;;;;5010975;28;20270;-72
2022/01/12 06:04:49;;;;;;;47.60;19.17;;;0.10;99.90;;;;;;5011581;28;20220;-72
2022/01/12 06:07:14;;;;;;;41.50;16.83;;;0.10;99.90;;;;;;5011501;28;20223;-71
2022/01/12 06:09:40;;;;;;;42.57;17.33;;;0.00;99.90;;;;;;5013949;28;20260;-72
2022/01/12 06:12:06;;;;;;;37.40;16.17;;;0.00;99.90;;;;;;5031544;28;20233;-71
2022/01/12 06:14:31;;;;;;;42.30;16.47;;;0.10;99.90;;;;;;5030244;28;20214;-71
2022/01/12 06:16:57;;;;;;;39.53;15.77;;;0.00;99.90;;;;;;5030184;28;20248;-71
2022/01/12 06:19:22;;;;;;;41.97;17.20;;;0.00;99.90;;;;;;5013962;28;20217;-71
2022/01/12 06:21:48;;;;;;;39.43;16.53;;;0.00;99.90;;;;;;4993068;28;20309;-71
2022/01/12 06:24:13;;;;;;;38.63;16.27;;;0.00;99.90;;;;;;5011817;28;20196;-72
2022/01/12 06:26:39;;;;;;;44.63;17.77;;;0.00;99.90;;;;;;5010777;28;20244;-71
2022/01/12 06:31:38;;;;;;;42.77;15.80;;;0.00;99.90;;;;;;5010750;28;20367;-71
2022/01/12 06:34:03;;;;;;;39.63;16.20;;;0.00;99.90;;;;;;5011141;28;21059;-72
2022/01/12 06:36:29;;;;;;;39.40;16.07;;;0.10;99.90;;;;;;4993025;28;20296;-71
2022/01/12 06:38:54;;;;;;;44.50;17.13;;;0.00;99.90;;;;;;5011330;28;20188;-71
2022/01/12 06:41:20;;;;;;;46.63;17.97;;;0.00;99.90;;;;;;5010871;28;20301;-71
2022/01/12 06:43:46;;;;;;;43.03;16.90;;;0.00;99.90;;;;;;5010439;28;20705;-72
2022/01/12 06:46:15;;;;;;;41.33;16.67;;;0.00;99.90;;;;;;4993123;28;20238;-74
2022/01/12 06:48:40;;;;;;;44.43;18.13;;;0.00;99.90;;;;;;5019289;28;20188;-71
2022/01/12 06:51:06;;;;;;;48.43;17.97;;;0.00;99.90;;;;;;4993648;28;20191;-71
2022/01/12 06:53:35;;;;;;;46.87;18.23;;;0.10;99.90;;;;;;5010479;28;20307;-72
2022/01/12 06:56:01;;;;;;;53.40;19.73;;;0.00;99.90;;;;;;5010776;28;20305;-72
2022/01/12 06:58:26;;;;;;;48.70;19.30;;;0.10;99.90;;;;;;4992749;28;20220;-71
2022/01/12 07:00:52;;;;;;;47.60;19.20;;;0.00;99.90;;;;;;4992869;28;20225;-72
2022/01/12 07:03:18;;;;;;;51.00;19.33;;;0.10;99.90;;;;;;5011056;28;20193;-72
2022/01/12 07:05:43;;;;;;;46.50;19.17;;;0.10;99.90;;;;;;4992889;28;20260;-71
2022/01/12 07:08:09;;;;;;;48.57;19.90;;;0.10;99.90;;;;;;5010587;28;20219;-71
2022/01/12 07:10:34;;;;;;;51.87;19.70;;;0.20;99.90;;;;;;4993136;28;20206;-72
2022/01/12 07:12:59;;;;;;;50.17;20.67;;;0.20;99.90;;;;;;5011218;28;20216;-71
2022/01/12 07:15:25;;;;;;;47.67;19.57;;;0.20;99.90;;;;;;5010780;28;20219;-71
2022/01/12 07:17:51;;;;;;;49.77;19.20;;;0.30;99.90;;;;;;5010514;28;20666;-72
2022/01/12 07:20:16;;;;;;;52.50;20.37;;;0.20;99.90;;;;;;5011344;28;20630;-71
2022/01/12 07:22:42;;;;;;;44.93;18.80;;;0.30;99.90;;;;;;5011163;28;20204;-72
2022/01/12 07:25:08;;;;;;;51.77;19.60;;;0.30;99.90;;;;;;5011418;28;20302;-72
2022/01/12 07:27:34;;;;;;;47.03;18.30;;;0.30;99.90;;;;;;5013618;28;20647;-72
2022/01/12 07:30:00;;;;;;;49.03;18.40;;;0.30;99.90;;;;;;5014949;28;20202;-73
2022/01/12 07:32:27;;;;;;;50.30;18.90;;;0.40;99.90;;;;;;5014382;28;20210;-72
2022/01/12 07:34:52;;;;;;;46.50;17.97;;;0.40;99.90;;;;;;4996486;28;20338;-72
2022/01/12 07:37:18;;;;;;;46.40;19.87;;;0.40;99.90;;;;;;4996352;28;20255;-72
2022/01/12 07:39:44;;;;;;;48.27;19.60;;;0.50;99.90;;;;;;5014078;28;20211;-72
2022/01/12 07:42:10;;;;;;;48.43;19.37;;;0.50;99.90;;;;;;5020914;28;20187;-71
2022/01/12 07:44:36;;;;;;;52.27;20.17;;;0.60;99.90;;;;;;5033617;28;20268;-72
2022/01/12 07:47:01;;;;;;;56.90;20.73;;;0.70;99.90;;;;;;5032866;28;20226;-72
2022/01/12 07:49:27;;;;;;;53.90;20.30;;;0.70;99.90;;;;;;5016279;28;20659;-73
2022/01/12 07:51:53;;;;;;;50.37;19.70;;;0.80;99.90;;;;;;5013876;28;20216;-72
2022/01/12 07:54:18;;;;;;;48.17;19.10;;;0.80;99.90;;;;;;4996856;28;20186;-72
2022/01/12 07:56:44;;;;;;;49.23;19.47;;;0.90;99.90;;;;;;4995859;28;20218;-72
2022/01/12 07:59:09;;;;;;;48.17;19.70;;;1.00;99.90;;;;;;4996316;28;20245;-72
2022/01/12 08:01:35;;;;;;;51.63;19.80;;;1.10;99.90;;;;;;5013636;28;20216;-72
2022/01/12 08:04:00;;;;;;;51.37;19.73;;;1.20;99.90;;;;;;5014394;28;20204;-72
2022/01/12 08:06:26;;;;;;;50.17;21.00;;;1.10;99.90;;;;;;5013424;28;20209;-72
2022/01/12 08:08:51;;;;;;;46.37;19.80;;;1.10;99.90;;;;;;4996177;28;20182;-72
2022/01/12 08:11:17;;;;;;;44.67;18.93;;;1.30;99.90;;;;;;4996047;28;20211;-72
2022/01/12 08:13:45;;;;;;;52.17;20.43;;;1.40;99.90;;;;;;5013519;28;20600;-73
2022/01/12 08:16:10;;;;;;;48.53;20.67;;;1.50;99.90;;;;;;5013276;28;20214;-72
2022/01/12 08:18:36;;;;;;;47.57;19.50;;;1.50;99.90;;;;;;5013609;28;20195;-72
2022/01/12 08:21:04;;;;;;;46.27;20.27;;;1.60;99.90;;;;;;5013549;28;20178;-72
2022/01/12 08:23:30;;;;;;;49.80;20.07;;;1.50;99.90;;;;;;5029431;28;20208;-72
2022/01/12 08:25:55;;;;;;;46.87;18.93;;;1.60;99.90;;;;;;5032638;28;20226;-73
2022/01/12 08:28:21;;;;;;;54.70;19.93;;;1.70;99.90;;;;;;5014537;28;20208;-72
2022/01/12 08:30:46;;;;;;;51.43;20.53;;;1.70;99.90;;;;;;5032774;28;20944;-72
2022/01/12 08:33:12;;;;;;;48.37;20.27;;;1.70;99.90;;;;;;5033282;28;20179;-74
2022/01/12 08:35:38;;;;;;;46.60;20.87;;;1.70;99.90;;;;;;5032051;28;20216;-73
2022/01/12 08:38:04;;;;;;;51.90;20.90;;;1.80;99.90;;;;;;5031566;28;20266;-72
2022/01/12 08:40:30;;;;;;;44.53;19.43;;;1.80;99.90;;;;;;5032842;28;20247;-72
2022/01/12 08:42:55;;;;;;;49.93;20.63;;;1.90;99.90;;;;;;5032504;28;20716;-72
2022/01/12 08:45:21;;;;;;;60.57;21.97;;;2.00;99.90;;;;;;5032946;28;20714;-74
2022/01/12 08:47:47;;;;;;;52.80;21.53;;;2.00;99.90;;;;;;5019932;28;20207;-73
2022/01/12 08:50:13;;;;;;;50.70;20.60;;;2.00;99.90;;;;;;5012974;28;20205;-72
2022/01/12 08:52:45;;;;;;;55.33;21.03;;;2.10;99.90;;;;;;5012368;28;20217;-72
2022/01/12 08:55:12;;;;;;;51.23;21.50;;;2.10;99.90;;;;;;4995311;28;20221;-72
2022/01/12 08:57:37;;;;;;;46.50;20.33;;;2.20;99.90;;;;;;5012246;28;20188;-74
2022/01/12 09:00:05;;;;;;;49.07;20.50;;;2.20;99.90;;;;;;5018836;28;20676;-72
2022/01/12 09:02:31;;;;;;;54.00;21.07;;;2.30;99.90;;;;;;5032147;28;20212;-72
2022/01/12 09:04:56;;;;;;;56.20;20.63;;;2.30;99.90;;;;;;5032261;28;20235;-73
2022/01/12 09:07:22;;;;;;;50.90;21.77;;;2.40;99.90;;;;;;5031842;28;20227;-73
2022/01/12 09:09:47;;;;;;;54.63;21.50;;;2.30;99.90;;;;;;5032055;28;20212;-72
2022/01/12 09:12:13;;;;;;;46.83;19.40;;;2.40;99.90;;;;;;5032346;28;20180;-72
2022/01/12 09:14:38;;;;;;;52.80;21.70;;;2.40;99.90;;;;;;5014100;28;20728;-72
2022/01/12 09:17:16;;;;;;;50.03;21.10;;;2.40;99.90;;;;;;5031303;28;20212;-72
2022/01/12 09:19:42;;;;;;;42.93;19.60;;;2.40;99.90;;;;;;5012284;28;20219;-72
2022/01/12 09:22:07;;;;;;;44.60;19.23;;;2.40;99.90;;;;;;4994677;28;20649;-72
2022/01/12 09:24:33;;;;;;;53.00;20.23;;;2.50;99.90;;;;;;5012490;28;20193;-72
2022/01/12 09:26:58;;;;;;;47.47;19.83;;;2.50;99.90;;;;;;5008147;28;20232;-72
2022/01/12 09:29:24;;;;;;;47.20;19.90;;;2.50;99.90;;;;;;5005243;28;20269;-72
2022/01/12 09:31:50;;;;;;;51.40;19.50;;;2.60;99.90;;;;;;5011873;28;20249;-72
2022/01/12 09:34:15;;;;;;;44.67;19.37;;;2.60;99.90;;;;;;5012253;28;20715;-72
2022/01/12 09:36:42;;;;;;;44.40;18.20;;;2.60;99.90;;;;;;5011372;28;20217;-72
2022/01/12 09:39:08;;;;;;;42.80;19.57;;;2.60;99.90;;;;;;5018653;28;20655;-72
2022/01/12 09:41:34;;;;;;;45.63;19.53;;;2.60;99.90;;;;;;5031516;28;20217;-72
2022/01/12 09:44:00;;;;;;;43.77;18.93;;;2.60;99.90;;;;;;5026016;28;20239;-72
2022/01/12 09:46:26;;;;;;;51.93;20.23;;;2.60;99.90;;;;;;5019752;28;20228;-72
2022/01/12 09:48:53;;;;;;;47.27;19.80;;;2.70;99.90;;;;;;5000640;28;20295;-72
2022/01/12 09:51:19;;;;;;;41.80;18.50;;;2.80;99.90;;;;;;5012554;28;20552;-71
2022/01/12 09:53:45;;;;;;;54.10;18.77;;;2.80;99.90;;;;;;5011364;28;20216;-72
2022/01/12 09:56:18;;;;;;;43.00;17.33;;;2.90;99.90;;;;;;5011194;28;20237;-72
2022/01/12 09:58:44;;;;;;;45.53;18.97;;;2.90;99.90;;;;;;4993321;28;20205;-72
2022/01/12 10:01:11;;;;;;;40.30;17.17;;;2.90;99.90;;;;;;5011350;28;20295;-72
2022/01/12 10:03:37;;;;;;;46.00;17.40;;;2.90;99.90;;;;;;5011298;28;20184;-73
2022/01/12 10:06:15;;;;;;;46.00;18.60;;;3.00;99.90;;;;;;5017456;28;20291;-74
2022/01/12 10:08:41;;;;;;;47.07;17.47;;;3.00;99.90;;;;;;5030702;28;20569;-72
2022/01/12 10:11:10;;;;;;;42.77;17.67;;;3.20;99.90;;;;;;5013191;28;20279;-72
2022/01/12 10:13:37;;;;;;;37.73;16.77;;;3.30;99.90;;;;;;5030795;28;20251;-72
2022/01/12 10:16:29;;;;;;;42.73;18.23;;;3.30;99.90;;;;;;5030890;28;20272;-72
2022/01/12 10:18:59;;;;;;;46.67;18.47;;;3.40;99.90;;;;;;5004219;28;20235;-72
2022/01/12 10:21:44;;;;;;;43.57;19.73;;;3.40;99.90;;;;;;5030693;28;20230;-72
2022/01/12 10:24:11;;;;;;;42.23;17.83;;;3.60;99.90;;;;;;5031491;28;20206;-71
2022/01/12 10:26:42;;;;;;;33.07;15.87;;;3.60;99.90;;;;;;5030407;28;20244;-71
2022/01/12 10:29:19;;;;;;;36.10;16.80;;;3.70;99.90;;;;;;5030757;28;20229;-74
2022/01/12 10:31:51;;;;;;;36.30;15.60;;;3.70;99.90;;;;;;5030733;28;20335;-73
2022/01/12 10:34:18;;;;;;;31.63;15.07;;;3.70;99.90;;;;;;5031070;28;20221;-72
2022/01/12 10:36:45;;;;;;;37.63;16.30;;;3.60;99.90;;;;;;5012433;28;20209;-72
2022/01/12 10:39:13;;;;;;;38.10;16.60;;;3.40;99.90;;;;;;5006446;28;20202;-73
2022/01/12 10:41:53;;;;;;;33.73;16.13;;;3.40;99.90;;;;;;5021381;28;20690;-72
2022/01/12 10:44:23;;;;;;;31.00;15.37;;;3.40;99.90;;;;;;5031034;28;20204;-72
2022/01/12 10:47:00;;;;;;;34.13;16.00;;;3.40;99.90;;;;;;5008712;28;20276;-72
2022/01/12 10:49:26;;;;;;;38.90;15.83;;;3.50;99.90;;;;;;4995750;28;20217;-72
2022/01/12 10:51:56;;;;;;;31.67;15.77;;;3.50;99.90;;;;;;5010736;28;20557;-72
2022/01/12 10:54:22;;;;;;;35.67;15.70;;;3.60;99.90;;;;;;5011493;28;20245;-72
2022/01/12 10:56:47;;;;;;;27.03;14.67;;;3.70;99.90;;;;;;5010768;28;20205;-71
2022/01/12 10:59:17;;;;;;;33.37;14.97;;;3.70;99.90;;;;;;5010826;28;20216;-72
2022/01/12 11:01:43;;;;;;;36.97;15.93;;;3.70;99.90;;;;;;5012616;28;20197;-72
2022/01/12 11:04:10;;;;;;;33.50;15.63;;;3.70;99.90;;;;;;4997499;28;20218;-72
2022/01/12 11:06:35;;;;;;;31.13;16.00;;;3.60;99.90;;;;;;5014657;28;20569;-71
2022/01/12 11:09:02;;;;;;;33.30;14.50;;;3.50;99.90;;;;;;5015221;28;20185;-72
2022/01/12 11:11:29;;;;;;;34.77;15.83;;;3.50;99.90;;;;;;5014614;28;20706;-72
2022/01/12 11:13:55;;;;;;;38.60;16.03;;;3.50;99.90;;;;;;5015178;28;20214;-72
2022/01/12 11:16:27;;;;;;;36.30;15.30;;;3.50;99.90;;;;;;4997562;28;20307;-74
2022/01/12 11:18:54;;;;;;;32.53;16.30;;;3.40;99.90;;;;;;5021782;28;20294;-72
2022/01/12 11:21:36;;;;;;;32.33;15.37;;;3.50;99.90;;;;;;5015089;28;20182;-74
2022/01/12 11:24:04;;;;;;;35.87;16.20;;;3.50;99.90;;;;;;5020503;28;20199;-71
2022/01/12 11:26:31;;;;;;;31.27;15.53;;;3.50;99.90;;;;;;5059125;23;20766;-71
2022/01/12 11:28:57;;;;;;;34.10;15.03;;;3.50;99.90;;;;;;5053034;28;20231;-71
2022/01/12 11:31:27;;;;;;;34.63;15.90;;;3.50;99.90;;;;;;5053716;28;20218;-74
2022/01/12 11:33:52;;;;;;;34.27;16.37;;;3.50;99.90;;;;;;5053726;28;20335;-71
2022/01/12 11:36:37;;;;;;;37.27;16.07;;;3.50;99.90;;;;;;5054038;28;20289;-71
2022/01/12 11:39:08;;;;;;;32.80;17.13;;;3.50;99.90;;;;;;5054086;28;20211;-71
2022/01/12 11:41:35;;;;;;;43.23;18.63;;;3.50;99.90;;;;;;5053433;28;20219;-71
2022/01/12 11:44:01;;;;;;;42.50;19.20;;;3.40;99.90;;;;;;5035510;28;20208;-71
2022/01/12 11:46:39;;;;;;;39.13;16.77;;;3.40;99.90;;;;;;5051667;28;20254;-71
2022/01/12 11:49:05;;;;;;;43.97;18.60;;;3.40;99.90;;;;;;5033358;28;20220;-71
2022/01/12 11:51:35;;;;;;;38.03;17.23;;;3.40;99.90;;;;;;5015559;28;20275;-72
2022/01/12 11:54:08;;;;;;;41.33;16.93;;;3.40;99.90;;;;;;5033919;28;20190;-68
2022/01/12 11:56:34;;;;;;;36.73;16.97;;;3.40;99.90;;;;;;5033001;28;20258;-71
2022/01/12 11:59:12;;;;;;;44.63;17.17;;;3.50;99.90;;;;;;5032999;28;20245;-71
2022/01/12 12:01:44;;;;;;;38.50;18.03;;;3.40;99.90;;;;;;5032711;28;20226;-71
2022/01/12 12:04:21;;;;;;;43.03;18.73;;;3.50;99.90;;;;;;5033614;28;20216;-71
2022/01/12 12:06:47;;;;;;;40.03;18.93;;;3.50;99.90;;;;;;5033287;28;20292;-71
2022/01/12 12:09:18;;;;;;;43.73;19.07;;;3.50;99.90;;;;;;5033493;28;20250;-71
2022/01/12 12:11:51;;;;;;;47.73;18.57;;;3.50;99.90;;;;;;5032995;28;20322;-71
2022/01/12 12:14:18;;;;;;;40.60;18.43;;;3.50;99.90;;;;;;5033553;28;20251;-71
2022/01/12 12:16:45;;;;;;;49.77;20.30;;;3.40;99.90;;;;;;5033054;28;20237;-71
2022/01/12 12:19:11;;;;;;;43.03;20.20;;;3.40;99.90;;;;;;5015373;28;20217;-71
2022/01/12 12:21:37;;;;;;;55.17;21.80;;;3.40;99.90;;;;;;5033318;28;20563;-71
2022/01/12 12:24:11;;;;;;;50.67;20.17;;;3.40;99.90;;;;;;5033382;28;20221;-72
2022/01/12 12:26:47;;;;;;;53.40;20.63;;;3.50;99.90;;;;;;5014830;28;20359;-71
2022/01/12 12:29:17;;;;;;;56.63;20.53;;;3.50;99.90;;;;;;5032770;28;20217;-72
2022/01/12 12:31:47;;;;;;;53.27;21.63;;;3.50;99.90;;;;;;5032787;28;20244;-73
2022/01/12 12:34:14;;;;;;;55.17;22.33;;;3.50;99.90;;;;;;5032864;28;20222;-71
2022/01/12 12:36:39;;;;;;;54.33;21.73;;;3.50;99.90;;;;;;5015064;28;20208;-73
2022/01/12 12:39:11;;;;;;;54.43;23.57;;;3.50;99.90;;;;;;5032821;28;20246;-72
2022/01/12 12:41:39;;;;;;;58.40;21.40;;;3.50;99.90;;;;;;5032546;28;20220;-72
2022/01/12 12:44:06;;;;;;;48.20;21.63;;;3.50;99.90;;;;;;5032513;28;20597;-71
2022/01/12 12:46:31;;;;;;;57.47;24.47;;;3.50;99.90;;;;;;5032460;28;20246;-71
2022/01/12 12:48:57;;;;;;;54.60;21.70;;;3.50;99.90;;;;;;5032153;28;20299;-71
2022/01/12 12:51:22;;;;;;;59.07;22.53;;;3.50;99.90;;;;;;5032475;28;20196;-73
2022/01/12 12:53:52;;;;;;;60.40;23.67;;;3.50;99.90;;;;;;5014323;28;20220;-71
2022/01/12 12:56:20;;;;;;;64.30;23.23;;;3.60;99.90;;;;;;5032233;28;20216;-71
2022/01/12 12:58:57;;;;;;;54.33;22.53;;;3.60;99.90;;;;;;5006201;28;20237;-71
2022/01/12 13:01:25;;;;;;;65.50;25.07;;;3.50;99.90;;;;;;5032059;28;20598;-71
2022/01/12 13:03:54;;;;;;;64.00;22.83;;;3.60;99.90;;;;;;5032152;28;20585;-71
2022/01/12 13:06:31;;;;;;;64.93;23.43;;;3.60;99.90;;;;;;5032483;28;20219;-72
2022/01/12 13:09:01;;;;;;;61.13;22.90;;;3.60;99.90;;;;;;5014317;28;20680;-71
2022/01/12 13:11:29;;;;;;;61.07;23.67;;;3.60;99.90;;;;;;5014243;28;20242;-71
2022/01/12 13:14:15;;;;;;;75.43;24.17;;;3.60;99.90;;;;;;5032008;28;20586;-73
2022/01/12 13:16:52;;;;;;;64.33;24.70;;;3.60;99.90;;;;;;5031354;28;20225;-73
2022/01/12 13:21:06;;;;;;;64.97;24.33;;;3.60;99.90;;;;;;5031899;28;20221;-71
2022/01/12 13:22:40;;;;;;;67.47;24.63;;;3.60;99.90;;;;;;5031588;28;20216;-72
2022/01/12 13:25:08;;;;;;;66.97;24.03;;;3.60;99.90;;;;;;5031438;28;20214;-71
2022/01/12 13:27:35;;;;;;;72.27;25.87;;;3.70;99.90;;;;;;5031303;28;20220;-72
2022/01/12 13:30:01;;;;;;;69.67;26.57;;;3.60;99.90;;;;;;5014391;28;20177;-72
2022/01/12 13:32:27;;;;;;;71.63;25.77;;;3.60;99.90;;;;;;5031480;28;20235;-74
2022/01/12 13:35:05;;;;;;;61.73;24.80;;;3.60;99.90;;;;;;5013903;28;20211;-72
2022/01/12 13:37:31;;;;;;;64.53;24.63;;;3.70;99.90;;;;;;5030719;28;20594;-71
2022/01/12 13:40:08;;;;;;;67.93;25.60;;;3.70;99.90;;;;;;5031292;28;20212;-71
2022/01/12 13:42:59;;;;;;;66.40;24.23;;;3.60;99.90;;;;;;5031165;28;20280;-71
2022/01/12 13:45:35;;;;;;;69.20;26.77;;;3.60;99.90;;;;;;5031114;28;20200;-72
2022/01/12 13:48:11;;;;;;;75.50;26.00;;;3.60;99.90;;;;;;5031674;28;20176;-71
2022/01/12 13:50:36;;;;;;;75.10;26.17;;;3.60;99.90;;;;;;5031628;28;20701;-76
2022/01/12 13:53:04;;;;;;;76.30;26.47;;;3.60;99.90;;;;;;5030025;28;20289;-72
2022/01/12 13:55:30;;;;;;;72.67;28.60;;;3.60;99.90;;;;;;5030533;28;20221;-73
2022/01/12 13:58:05;;;;;;;80.67;28.90;;;3.60;99.90;;;;;;5013288;28;20264;-73
2022/01/12 14:00:35;;;;;;;76.57;28.37;;;3.50;99.90;;;;;;5013637;28;20279;-72